sensor_id;sensor_type;location;lat;lon;timestamp;P1;durP1;ratioP1;P2;durP2;ratioP2
16662;SDS011;8445;51.270;9.434;2023-04-25T00:02:20;9.07;;;4.30;;
16662;SDS011;8445;51.270;9.434;2023-04-25T00:04:45;9.00;;;4.57;;
16662;SDS011;8445;51.270;9.434;2023-04-25T00:07:14;5.07;;;4.43;;
16662;SDS011;8445;51.270;9.434;2023-04-25T00:09:39;6.53;;;4.77;;
16662;SDS011;8445;51.270;9.434;2023-04-25T00:12:05;6.50;;;4.37;;
16662;SDS011;8445;51.270;9.434;2023-04-25T00:14:30;6.03;;;4.33;;
16662;SDS011;8445;51.270;9.434;2023-04-25T00:17:00;6.70;;;4.50;;
16662;SDS011;8445;51.270;9.434;2023-04-25T00:19:30;7.10;;;4.30;;
16662;SDS011;8445;51.270;9.434;2023-04-25T00:21:59;4.13;;;3.70;;
16662;SDS011;8445;51.270;9.434;2023-04-25T00:24:29;8.03;;;3.90;;
16662;SDS011;8445;51.270;9.434;2023-04-25T00:26:57;6.17;;;4.10;;
16662;SDS011;8445;51.270;9.434;2023-04-25T00:29:25;5.10;;;4.10;;
16662;SDS011;8445;51.270;9.434;2023-04-25T00:31:53;4.90;;;3.83;;
16662;SDS011;8445;51.270;9.434;2023-04-25T00:34:20;7.13;;;3.73;;
16662;SDS011;8445;51.270;9.434;2023-04-25T00:36:50;5.37;;;3.90;;
16662;SDS011;8445;51.270;9.434;2023-04-25T00:39:17;7.17;;;4.77;;
16662;SDS011;8445;51.270;9.434;2023-04-25T00:41:43;5.30;;;4.80;;
16662;SDS011;8445;51.270;9.434;2023-04-25T00:44:11;5.77;;;4.57;;
16662;SDS011;8445;51.270;9.434;2023-04-25T00:46:38;6.23;;;4.90;;
16662;SDS011;8445;51.270;9.434;2023-04-25T00:49:06;8.13;;;5.10;;
16662;SDS011;8445;51.270;9.434;2023-04-25T00:51:33;7.23;;;4.90;;
16662;SDS011;8445;51.270;9.434;2023-04-25T00:54:00;6.47;;;4.70;;
16662;SDS011;8445;51.270;9.434;2023-04-25T00:56:27;9.27;;;6.10;;
16662;SDS011;8445;51.270;9.434;2023-04-25T00:58:53;13.27;;;7.20;;
16662;SDS011;8445;51.270;9.434;2023-04-25T01:01:22;11.97;;;6.60;;
16662;SDS011;8445;51.270;9.434;2023-04-25T01:03:48;14.97;;;7.63;;
16662;SDS011;8445;51.270;9.434;2023-04-25T01:06:16;11.40;;;7.43;;
16662;SDS011;8445;51.270;9.434;2023-04-25T01:08:43;16.03;;;8.23;;
16662;SDS011;8445;51.270;9.434;2023-04-25T01:11:10;12.67;;;7.70;;
16662;SDS011;8445;51.270;9.434;2023-04-25T01:13:37;9.80;;;7.13;;
16662;SDS011;8445;51.270;9.434;2023-04-25T01:16:07;8.50;;;6.50;;
16662;SDS011;8445;51.270;9.434;2023-04-25T01:18:33;10.93;;;6.50;;
16662;SDS011;8445;51.270;9.434;2023-04-25T01:21:03;13.80;;;7.53;;
16662;SDS011;8445;51.270;9.434;2023-04-25T01:23:40;11.90;;;8.57;;
16662;SDS011;8445;51.270;9.434;2023-04-25T01:26:11;11.47;;;8.00;;
16662;SDS011;8445;51.270;9.434;2023-04-25T01:28:37;13.23;;;8.33;;
16662;SDS011;8445;51.270;9.434;2023-04-25T01:31:06;14.47;;;8.37;;
16662;SDS011;8445;51.270;9.434;2023-04-25T01:33:32;14.57;;;8.67;;
16662;SDS011;8445;51.270;9.434;2023-04-25T01:35:59;13.63;;;8.07;;
16662;SDS011;8445;51.270;9.434;2023-04-25T01:38:25;13.20;;;7.80;;
16662;SDS011;8445;51.270;9.434;2023-04-25T01:40:51;9.43;;;7.50;;
16662;SDS011;8445;51.270;9.434;2023-04-25T01:43:18;13.63;;;8.03;;
16662;SDS011;8445;51.270;9.434;2023-04-25T01:45:44;10.80;;;7.13;;
16662;SDS011;8445;51.270;9.434;2023-04-25T01:48:11;14.80;;;8.20;;
16662;SDS011;8445;51.270;9.434;2023-04-25T01:50:38;10.90;;;8.03;;
16662;SDS011;8445;51.270;9.434;2023-04-25T01:53:05;12.93;;;8.30;;
16662;SDS011;8445;51.270;9.434;2023-04-25T01:55:31;13.10;;;7.80;;
16662;SDS011;8445;51.270;9.434;2023-04-25T01:58:04;13.90;;;8.37;;
16662;SDS011;8445;51.270;9.434;2023-04-25T02:01:01;13.33;;;8.33;;
16662;SDS011;8445;51.270;9.434;2023-04-25T02:03:33;9.67;;;7.00;;
16662;SDS011;8445;51.270;9.434;2023-04-25T02:06:00;14.03;;;7.43;;
16662;SDS011;8445;51.270;9.434;2023-04-25T02:08:26;7.37;;;6.30;;
16662;SDS011;8445;51.270;9.434;2023-04-25T02:10:53;10.90;;;7.70;;
16662;SDS011;8445;51.270;9.434;2023-04-25T02:13:19;7.50;;;6.50;;
16662;SDS011;8445;51.270;9.434;2023-04-25T02:16:05;8.00;;;7.10;;
16662;SDS011;8445;51.270;9.434;2023-04-25T02:18:30;11.37;;;8.17;;
16662;SDS011;8445;51.270;9.434;2023-04-25T02:20:57;10.67;;;7.70;;
16662;SDS011;8445;51.270;9.434;2023-04-25T02:23:23;13.03;;;7.60;;
16662;SDS011;8445;51.270;9.434;2023-04-25T02:25:49;12.97;;;8.47;;
16662;SDS011;8445;51.270;9.434;2023-04-25T02:28:17;9.37;;;7.97;;
16662;SDS011;8445;51.270;9.434;2023-04-25T02:30:43;13.03;;;8.23;;
16662;SDS011;8445;51.270;9.434;2023-04-25T02:33:08;9.40;;;8.07;;
16662;SDS011;8445;51.270;9.434;2023-04-25T02:35:34;13.83;;;8.57;;
16662;SDS011;8445;51.270;9.434;2023-04-25T02:38:00;11.63;;;8.87;;
16662;SDS011;8445;51.270;9.434;2023-04-25T02:40:25;13.07;;;9.20;;
16662;SDS011;8445;51.270;9.434;2023-04-25T02:42:53;11.13;;;8.23;;
16662;SDS011;8445;51.270;9.434;2023-04-25T02:45:18;12.17;;;8.73;;
16662;SDS011;8445;51.270;9.434;2023-04-25T02:47:44;12.97;;;9.17;;
16662;SDS011;8445;51.270;9.434;2023-04-25T02:50:10;16.37;;;8.40;;
16662;SDS011;8445;51.270;9.434;2023-04-25T02:52:36;13.20;;;8.90;;
16662;SDS011;8445;51.270;9.434;2023-04-25T02:55:12;20.27;;;10.23;;
16662;SDS011;8445;51.270;9.434;2023-04-25T02:57:38;16.47;;;10.37;;
16662;SDS011;8445;51.270;9.434;2023-04-25T03:00:03;15.00;;;12.10;;
16662;SDS011;8445;51.270;9.434;2023-04-25T03:02:30;17.33;;;11.57;;
16662;SDS011;8445;51.270;9.434;2023-04-25T03:04:55;22.97;;;13.20;;
16662;SDS011;8445;51.270;9.434;2023-04-25T03:07:21;18.43;;;12.07;;
16662;SDS011;8445;51.270;9.434;2023-04-25T03:09:47;16.23;;;11.70;;
16662;SDS011;8445;51.270;9.434;2023-04-25T03:12:13;12.87;;;10.97;;
16662;SDS011;8445;51.270;9.434;2023-04-25T03:14:38;14.87;;;9.77;;
16662;SDS011;8445;51.270;9.434;2023-04-25T03:17:04;12.10;;;8.57;;
16662;SDS011;8445;51.270;9.434;2023-04-25T03:19:29;13.07;;;8.07;;
16662;SDS011;8445;51.270;9.434;2023-04-25T03:21:54;12.53;;;7.37;;
16662;SDS011;8445;51.270;9.434;2023-04-25T03:24:21;7.93;;;6.83;;
16662;SDS011;8445;51.270;9.434;2023-04-25T03:26:47;9.23;;;8.00;;
16662;SDS011;8445;51.270;9.434;2023-04-25T03:29:12;11.27;;;8.10;;
16662;SDS011;8445;51.270;9.434;2023-04-25T03:31:39;10.67;;;8.10;;
16662;SDS011;8445;51.270;9.434;2023-04-25T03:34:04;12.40;;;8.17;;
16662;SDS011;8445;51.270;9.434;2023-04-25T03:36:30;15.73;;;7.80;;
16662;SDS011;8445;51.270;9.434;2023-04-25T03:38:55;9.67;;;7.93;;
16662;SDS011;8445;51.270;9.434;2023-04-25T03:41:21;12.10;;;8.10;;
16662;SDS011;8445;51.270;9.434;2023-04-25T03:43:51;9.43;;;6.83;;
16662;SDS011;8445;51.270;9.434;2023-04-25T03:46:17;15.00;;;7.77;;
16662;SDS011;8445;51.270;9.434;2023-04-25T03:48:42;7.60;;;6.80;;
16662;SDS011;8445;51.270;9.434;2023-04-25T03:51:11;9.63;;;6.97;;
16662;SDS011;8445;51.270;9.434;2023-04-25T03:53:40;9.50;;;6.90;;
16662;SDS011;8445;51.270;9.434;2023-04-25T03:56:18;8.70;;;6.77;;
16662;SDS011;8445;51.270;9.434;2023-04-25T03:58:45;9.10;;;6.70;;
16662;SDS011;8445;51.270;9.434;2023-04-25T04:01:15;12.53;;;6.80;;
16662;SDS011;8445;51.270;9.434;2023-04-25T04:03:41;11.13;;;7.80;;
16662;SDS011;8445;51.270;9.434;2023-04-25T04:06:07;12.23;;;7.47;;
16662;SDS011;8445;51.270;9.434;2023-04-25T04:08:36;12.97;;;7.33;;
16662;SDS011;8445;51.270;9.434;2023-04-25T04:11:02;11.33;;;7.93;;
16662;SDS011;8445;51.270;9.434;2023-04-25T04:13:27;12.93;;;7.53;;
16662;SDS011;8445;51.270;9.434;2023-04-25T04:15:54;10.00;;;7.17;;
16662;SDS011;8445;51.270;9.434;2023-04-25T04:18:20;14.33;;;7.43;;
16662;SDS011;8445;51.270;9.434;2023-04-25T04:20:46;10.07;;;7.17;;
16662;SDS011;8445;51.270;9.434;2023-04-25T04:23:12;15.67;;;7.40;;
16662;SDS011;8445;51.270;9.434;2023-04-25T04:25:37;11.33;;;6.50;;
16662;SDS011;8445;51.270;9.434;2023-04-25T04:28:25;11.97;;;5.93;;
16662;SDS011;8445;51.270;9.434;2023-04-25T04:31:11;13.77;;;6.13;;
16662;SDS011;8445;51.270;9.434;2023-04-25T04:33:37;12.15;;;6.35;;
16662;SDS011;8445;51.270;9.434;2023-04-25T04:36:04;13.23;;;6.63;;
16662;SDS011;8445;51.270;9.434;2023-04-25T04:38:32;7.87;;;5.53;;
16662;SDS011;8445;51.270;9.434;2023-04-25T04:41:01;9.80;;;5.27;;
16662;SDS011;8445;51.270;9.434;2023-04-25T04:43:46;10.60;;;6.07;;
16662;SDS011;8445;51.270;9.434;2023-04-25T04:46:37;9.65;;;5.88;;
16662;SDS011;8445;51.270;9.434;2023-04-25T04:49:18;9.32;;;5.80;;
16662;SDS011;8445;51.270;9.434;2023-04-25T04:51:54;8.20;;;5.70;;
16662;SDS011;8445;51.270;9.434;2023-04-25T04:54:52;8.03;;;5.43;;
16662;SDS011;8445;51.270;9.434;2023-04-25T04:57:42;10.45;;;5.82;;
16662;SDS011;8445;51.270;9.434;2023-04-25T05:00:34;10.57;;;5.63;;
16662;SDS011;8445;51.270;9.434;2023-04-25T05:03:11;10.05;;;6.28;;
16662;SDS011;8445;51.270;9.434;2023-04-25T05:06:12;12.20;;;5.80;;
16662;SDS011;8445;51.270;9.434;2023-04-25T05:08:46;8.55;;;5.65;;
16662;SDS011;8445;51.270;9.434;2023-04-25T05:11:41;9.40;;;5.50;;
16662;SDS011;8445;51.270;9.434;2023-04-25T05:14:18;9.67;;;5.60;;
16662;SDS011;8445;51.270;9.434;2023-04-25T05:16:48;10.25;;;6.22;;
16662;SDS011;8445;51.270;9.434;2023-04-25T05:19:43;10.40;;;5.50;;
16662;SDS011;8445;51.270;9.434;2023-04-25T05:22:27;9.02;;;5.32;;
16662;SDS011;8445;51.270;9.434;2023-04-25T05:25:08;7.85;;;5.47;;
16662;SDS011;8445;51.270;9.434;2023-04-25T05:27:53;12.77;;;5.80;;
16662;SDS011;8445;51.270;9.434;2023-04-25T05:30:38;9.48;;;5.45;;
16662;SDS011;8445;51.270;9.434;2023-04-25T05:33:13;13.50;;;5.50;;
16662;SDS011;8445;51.270;9.434;2023-04-25T05:35:38;10.90;;;6.05;;
16662;SDS011;8445;51.270;9.434;2023-04-25T05:38:04;6.55;;;4.93;;
16662;SDS011;8445;51.270;9.434;2023-04-25T05:40:48;4.85;;;4.32;;
16662;SDS011;8445;51.270;9.434;2023-04-25T05:43:36;10.82;;;5.53;;
16662;SDS011;8445;51.270;9.434;2023-04-25T05:46:15;8.23;;;5.20;;
16662;SDS011;8445;51.270;9.434;2023-04-25T05:49:15;5.95;;;4.05;;
16662;SDS011;8445;51.270;9.434;2023-04-25T05:51:58;3.55;;;3.05;;
16662;SDS011;8445;51.270;9.434;2023-04-25T05:54:44;3.33;;;2.63;;
16662;SDS011;8445;51.270;9.434;2023-04-25T05:57:18;4.40;;;2.90;;
16662;SDS011;8445;51.270;9.434;2023-04-25T05:59:47;3.15;;;2.70;;
16662;SDS011;8445;51.270;9.434;2023-04-25T06:02:13;3.92;;;2.63;;
16662;SDS011;8445;51.270;9.434;2023-04-25T06:04:40;2.80;;;2.53;;
16662;SDS011;8445;51.270;9.434;2023-04-25T06:07:05;2.30;;;2.10;;
16662;SDS011;8445;51.270;9.434;2023-04-25T06:09:31;2.97;;;2.30;;
16662;SDS011;8445;51.270;9.434;2023-04-25T06:11:57;1.80;;;1.70;;
16662;SDS011;8445;51.270;9.434;2023-04-25T06:14:22;2.25;;;1.98;;
16662;SDS011;8445;51.270;9.434;2023-04-25T06:16:49;2.80;;;1.50;;
16662;SDS011;8445;51.270;9.434;2023-04-25T06:19:14;2.20;;;2.03;;
16662;SDS011;8445;51.270;9.434;2023-04-25T06:21:41;1.90;;;1.80;;
16662;SDS011;8445;51.270;9.434;2023-04-25T06:24:08;3.75;;;2.30;;
16662;SDS011;8445;51.270;9.434;2023-04-25T06:26:34;7.53;;;2.25;;
16662;SDS011;8445;51.270;9.434;2023-04-25T06:28:59;2.40;;;2.20;;
16662;SDS011;8445;51.270;9.434;2023-04-25T06:31:25;3.53;;;2.20;;
16662;SDS011;8445;51.270;9.434;2023-04-25T06:33:51;4.68;;;2.40;;
16662;SDS011;8445;51.270;9.434;2023-04-25T06:36:20;4.72;;;2.90;;
16662;SDS011;8445;51.270;9.434;2023-04-25T06:38:52;2.30;;;2.08;;
16662;SDS011;8445;51.270;9.434;2023-04-25T06:41:20;4.93;;;2.15;;
16662;SDS011;8445;51.270;9.434;2023-04-25T06:43:46;6.38;;;2.30;;
16662;SDS011;8445;51.270;9.434;2023-04-25T06:46:14;4.50;;;2.30;;
16662;SDS011;8445;51.270;9.434;2023-04-25T06:48:43;4.47;;;2.60;;
16662;SDS011;8445;51.270;9.434;2023-04-25T06:51:10;4.40;;;2.67;;
16662;SDS011;8445;51.270;9.434;2023-04-25T06:53:36;8.70;;;3.13;;
16662;SDS011;8445;51.270;9.434;2023-04-25T06:56:04;6.40;;;3.30;;
16662;SDS011;8445;51.270;9.434;2023-04-25T06:58:43;6.65;;;3.60;;
16662;SDS011;8445;51.270;9.434;2023-04-25T07:01:18;11.32;;;3.53;;
16662;SDS011;8445;51.270;9.434;2023-04-25T07:03:44;12.32;;;4.20;;
16662;SDS011;8445;51.270;9.434;2023-04-25T07:06:14;9.95;;;3.33;;
16662;SDS011;8445;51.270;9.434;2023-04-25T07:08:40;8.05;;;3.35;;
16662;SDS011;8445;51.270;9.434;2023-04-25T07:11:05;11.38;;;3.95;;
16662;SDS011;8445;51.270;9.434;2023-04-25T07:13:31;11.07;;;4.20;;
16662;SDS011;8445;51.270;9.434;2023-04-25T07:15:57;8.52;;;4.15;;
16662;SDS011;8445;51.270;9.434;2023-04-25T07:18:22;9.23;;;3.58;;
16662;SDS011;8445;51.270;9.434;2023-04-25T07:20:49;10.18;;;4.07;;
16662;SDS011;8445;51.270;9.434;2023-04-25T07:23:14;7.85;;;3.33;;
16662;SDS011;8445;51.270;9.434;2023-04-25T07:25:40;8.80;;;3.38;;
16662;SDS011;8445;51.270;9.434;2023-04-25T07:28:06;9.13;;;3.67;;
16662;SDS011;8445;51.270;9.434;2023-04-25T07:30:32;9.02;;;3.10;;
16662;SDS011;8445;51.270;9.434;2023-04-25T07:33:02;12.15;;;4.03;;
16662;SDS011;8445;51.270;9.434;2023-04-25T07:35:28;16.98;;;3.60;;
16662;SDS011;8445;51.270;9.434;2023-04-25T07:37:53;11.90;;;3.60;;
16662;SDS011;8445;51.270;9.434;2023-04-25T07:40:19;8.77;;;3.25;;
16662;SDS011;8445;51.270;9.434;2023-04-25T07:42:51;16.15;;;3.95;;
16662;SDS011;8445;51.270;9.434;2023-04-25T07:45:23;13.63;;;3.63;;
16662;SDS011;8445;51.270;9.434;2023-04-25T07:47:49;9.60;;;3.50;;
16662;SDS011;8445;51.270;9.434;2023-04-25T07:50:15;10.15;;;3.33;;
16662;SDS011;8445;51.270;9.434;2023-04-25T07:52:41;10.75;;;3.45;;
16662;SDS011;8445;51.270;9.434;2023-04-25T07:55:16;10.02;;;3.28;;
16662;SDS011;8445;51.270;9.434;2023-04-25T07:58:02;9.40;;;2.70;;
16662;SDS011;8445;51.270;9.434;2023-04-25T08:00:29;10.43;;;3.10;;
16662;SDS011;8445;51.270;9.434;2023-04-25T08:03:14;12.10;;;3.80;;
16662;SDS011;8445;51.270;9.434;2023-04-25T08:05:40;8.32;;;3.10;;
16662;SDS011;8445;51.270;9.434;2023-04-25T08:08:06;6.53;;;3.28;;
16662;SDS011;8445;51.270;9.434;2023-04-25T08:10:32;9.93;;;3.20;;
16662;SDS011;8445;51.270;9.434;2023-04-25T08:13:01;12.88;;;3.13;;
16662;SDS011;8445;51.270;9.434;2023-04-25T08:15:28;12.45;;;3.65;;
16662;SDS011;8445;51.270;9.434;2023-04-25T08:17:53;13.88;;;3.55;;
16662;SDS011;8445;51.270;9.434;2023-04-25T08:20:19;8.48;;;2.90;;
16662;SDS011;8445;51.270;9.434;2023-04-25T08:22:45;7.07;;;2.80;;
16662;SDS011;8445;51.270;9.434;2023-04-25T08:25:22;9.38;;;3.35;;
16662;SDS011;8445;51.270;9.434;2023-04-25T08:27:47;8.32;;;2.67;;
16662;SDS011;8445;51.270;9.434;2023-04-25T08:30:14;10.40;;;3.22;;
16662;SDS011;8445;51.270;9.434;2023-04-25T08:32:44;9.65;;;3.35;;
16662;SDS011;8445;51.270;9.434;2023-04-25T08:35:41;8.48;;;3.13;;
16662;SDS011;8445;51.270;9.434;2023-04-25T08:38:06;13.98;;;3.60;;
16662;SDS011;8445;51.270;9.434;2023-04-25T08:40:32;7.88;;;2.58;;
16662;SDS011;8445;51.270;9.434;2023-04-25T08:43:18;11.63;;;3.13;;
16662;SDS011;8445;51.270;9.434;2023-04-25T08:45:48;8.80;;;3.22;;
16662;SDS011;8445;51.270;9.434;2023-04-25T08:48:39;8.02;;;3.45;;
16662;SDS011;8445;51.270;9.434;2023-04-25T08:51:09;7.60;;;2.85;;
16662;SDS011;8445;51.270;9.434;2023-04-25T08:53:42;8.82;;;2.90;;
16662;SDS011;8445;51.270;9.434;2023-04-25T08:56:11;12.77;;;2.88;;
16662;SDS011;8445;51.270;9.434;2023-04-25T08:58:44;11.32;;;3.47;;
16662;SDS011;8445;51.270;9.434;2023-04-25T09:01:12;11.25;;;3.13;;
16662;SDS011;8445;51.270;9.434;2023-04-25T09:03:47;8.10;;;3.40;;
16662;SDS011;8445;51.270;9.434;2023-04-25T09:06:14;10.68;;;3.35;;
16662;SDS011;8445;51.270;9.434;2023-04-25T09:08:43;11.20;;;2.97;;
16662;SDS011;8445;51.270;9.434;2023-04-25T09:11:09;7.43;;;2.95;;
16662;SDS011;8445;51.270;9.434;2023-04-25T09:13:35;9.57;;;2.88;;
16662;SDS011;8445;51.270;9.434;2023-04-25T09:16:21;7.38;;;2.75;;
16662;SDS011;8445;51.270;9.434;2023-04-25T09:19:22;10.15;;;3.20;;
16662;SDS011;8445;51.270;9.434;2023-04-25T09:22:00;9.73;;;2.65;;
16662;SDS011;8445;51.270;9.434;2023-04-25T09:24:38;9.65;;;2.65;;
16662;SDS011;8445;51.270;9.434;2023-04-25T09:27:18;7.10;;;2.90;;
16662;SDS011;8445;51.270;9.434;2023-04-25T09:29:58;8.85;;;2.70;;
16662;SDS011;8445;51.270;9.434;2023-04-25T09:32:55;7.45;;;3.10;;
16662;SDS011;8445;51.270;9.434;2023-04-25T09:35:25;8.18;;;3.05;;
16662;SDS011;8445;51.270;9.434;2023-04-25T09:37:56;6.15;;;2.50;;
16662;SDS011;8445;51.270;9.434;2023-04-25T09:40:47;10.68;;;3.15;;
16662;SDS011;8445;51.270;9.434;2023-04-25T09:43:33;10.77;;;2.92;;
16662;SDS011;8445;51.270;9.434;2023-04-25T09:45:58;7.85;;;2.67;;
16662;SDS011;8445;51.270;9.434;2023-04-25T09:48:26;7.85;;;2.63;;
16662;SDS011;8445;51.270;9.434;2023-04-25T09:53:34;9.13;;;3.13;;
16662;SDS011;8445;51.270;9.434;2023-04-25T09:56:11;11.18;;;2.90;;
16662;SDS011;8445;51.270;9.434;2023-04-25T09:58:39;5.47;;;2.20;;
16662;SDS011;8445;51.270;9.434;2023-04-25T10:01:06;10.68;;;2.75;;
16662;SDS011;8445;51.270;9.434;2023-04-25T10:03:42;7.35;;;2.67;;
16662;SDS011;8445;51.270;9.434;2023-04-25T10:06:27;7.68;;;2.65;;
16662;SDS011;8445;51.270;9.434;2023-04-25T10:08:54;9.18;;;3.08;;
16662;SDS011;8445;51.270;9.434;2023-04-25T10:11:24;10.25;;;2.60;;
16662;SDS011;8445;51.270;9.434;2023-04-25T10:13:54;7.60;;;2.67;;
16662;SDS011;8445;51.270;9.434;2023-04-25T10:16:21;4.43;;;2.28;;
16662;SDS011;8445;51.270;9.434;2023-04-25T10:18:47;9.63;;;2.53;;
16662;SDS011;8445;51.270;9.434;2023-04-25T10:21:17;9.88;;;2.53;;
16662;SDS011;8445;51.270;9.434;2023-04-25T10:23:48;8.82;;;2.67;;
16662;SDS011;8445;51.270;9.434;2023-04-25T10:26:20;5.95;;;2.40;;
16662;SDS011;8445;51.270;9.434;2023-04-25T10:29:00;7.63;;;2.45;;
16662;SDS011;8445;51.270;9.434;2023-04-25T10:31:29;4.75;;;2.20;;
16662;SDS011;8445;51.270;9.434;2023-04-25T10:33:55;9.43;;;2.33;;
16662;SDS011;8445;51.270;9.434;2023-04-25T10:36:22;6.63;;;2.50;;
16662;SDS011;8445;51.270;9.434;2023-04-25T10:38:48;4.38;;;2.00;;
16662;SDS011;8445;51.270;9.434;2023-04-25T10:41:18;6.95;;;2.42;;
16662;SDS011;8445;51.270;9.434;2023-04-25T10:43:48;5.80;;;2.30;;
16662;SDS011;8445;51.270;9.434;2023-04-25T10:48:49;8.30;;;2.78;;
16662;SDS011;8445;51.270;9.434;2023-04-25T10:53:45;5.38;;;2.08;;
16662;SDS011;8445;51.270;9.434;2023-04-25T10:56:13;6.15;;;2.35;;
16662;SDS011;8445;51.270;9.434;2023-04-25T10:58:45;4.90;;;2.15;;
16662;SDS011;8445;51.270;9.434;2023-04-25T11:01:14;5.95;;;1.98;;
16662;SDS011;8445;51.270;9.434;2023-04-25T11:03:44;6.15;;;2.53;;
16662;SDS011;8445;51.270;9.434;2023-04-25T11:06:22;8.90;;;2.03;;
16662;SDS011;8445;51.270;9.434;2023-04-25T11:08:52;4.25;;;2.08;;
16662;SDS011;8445;51.270;9.434;2023-04-25T11:11:17;6.78;;;2.00;;
16662;SDS011;8445;51.270;9.434;2023-04-25T11:13:47;3.60;;;1.63;;
16662;SDS011;8445;51.270;9.434;2023-04-25T11:16:13;3.63;;;1.80;;
16662;SDS011;8445;51.270;9.434;2023-04-25T11:18:42;4.90;;;1.90;;
16662;SDS011;8445;51.270;9.434;2023-04-25T11:21:09;4.53;;;1.88;;
16662;SDS011;8445;51.270;9.434;2023-04-25T11:23:36;3.47;;;1.85;;
16662;SDS011;8445;51.270;9.434;2023-04-25T11:26:02;4.95;;;2.08;;
16662;SDS011;8445;51.270;9.434;2023-04-25T11:28:30;4.15;;;1.90;;
16662;SDS011;8445;51.270;9.434;2023-04-25T11:30:56;6.97;;;1.92;;
16662;SDS011;8445;51.270;9.434;2023-04-25T11:33:24;7.80;;;2.03;;
16662;SDS011;8445;51.270;9.434;2023-04-25T11:35:53;7.10;;;2.10;;
16662;SDS011;8445;51.270;9.434;2023-04-25T11:38:20;5.80;;;1.85;;
16662;SDS011;8445;51.270;9.434;2023-04-25T11:40:49;8.18;;;1.98;;
16662;SDS011;8445;51.270;9.434;2023-04-25T11:43:17;7.63;;;2.33;;
16662;SDS011;8445;51.270;9.434;2023-04-25T11:45:48;3.83;;;1.65;;
16662;SDS011;8445;51.270;9.434;2023-04-25T11:48:19;3.00;;;1.52;;
16662;SDS011;8445;51.270;9.434;2023-04-25T11:50:48;5.10;;;2.17;;
16662;SDS011;8445;51.270;9.434;2023-04-25T11:53:17;5.20;;;1.90;;
16662;SDS011;8445;51.270;9.434;2023-04-25T11:55:46;7.10;;;2.10;;
16662;SDS011;8445;51.270;9.434;2023-04-25T11:58:15;4.57;;;1.63;;
16662;SDS011;8445;51.270;9.434;2023-04-25T12:00:41;5.28;;;1.88;;
16662;SDS011;8445;51.270;9.434;2023-04-25T12:03:08;3.72;;;1.80;;
16662;SDS011;8445;51.270;9.434;2023-04-25T12:05:34;4.75;;;2.08;;
16662;SDS011;8445;51.270;9.434;2023-04-25T12:08:10;4.35;;;1.65;;
16662;SDS011;8445;51.270;9.434;2023-04-25T12:10:41;4.05;;;1.30;;
16662;SDS011;8445;51.270;9.434;2023-04-25T12:13:17;4.65;;;1.40;;
16662;SDS011;8445;51.270;9.434;2023-04-25T12:15:43;5.75;;;2.00;;
16662;SDS011;8445;51.270;9.434;2023-04-25T12:18:08;5.78;;;2.17;;
16662;SDS011;8445;51.270;9.434;2023-04-25T12:20:34;4.22;;;1.60;;
16662;SDS011;8445;51.270;9.434;2023-04-25T12:23:00;1.95;;;1.30;;
16662;SDS011;8445;51.270;9.434;2023-04-25T12:25:38;3.83;;;1.50;;
16662;SDS011;8445;51.270;9.434;2023-04-25T12:28:14;6.00;;;2.20;;
16662;SDS011;8445;51.270;9.434;2023-04-25T12:30:53;4.93;;;1.95;;
16662;SDS011;8445;51.270;9.434;2023-04-25T12:33:20;7.25;;;2.00;;
16662;SDS011;8445;51.270;9.434;2023-04-25T12:35:46;4.85;;;1.88;;
16662;SDS011;8445;51.270;9.434;2023-04-25T12:38:20;5.97;;;1.80;;
16662;SDS011;8445;51.270;9.434;2023-04-25T12:40:46;4.60;;;2.00;;
16662;SDS011;8445;51.270;9.434;2023-04-25T12:43:11;4.90;;;1.80;;
16662;SDS011;8445;51.270;9.434;2023-04-25T12:45:37;3.22;;;1.58;;
16662;SDS011;8445;51.270;9.434;2023-04-25T12:48:02;5.13;;;2.30;;
16662;SDS011;8445;51.270;9.434;2023-04-25T12:50:28;5.45;;;1.90;;
16662;SDS011;8445;51.270;9.434;2023-04-25T12:52:53;3.75;;;1.83;;
16662;SDS011;8445;51.270;9.434;2023-04-25T12:55:19;6.68;;;2.28;;
16662;SDS011;8445;51.270;9.434;2023-04-25T12:57:44;4.60;;;2.13;;
16662;SDS011;8445;51.270;9.434;2023-04-25T13:00:10;4.53;;;1.70;;
16662;SDS011;8445;51.270;9.434;2023-04-25T13:02:39;4.28;;;1.92;;
16662;SDS011;8445;51.270;9.434;2023-04-25T13:05:05;3.05;;;2.03;;
16662;SDS011;8445;51.270;9.434;2023-04-25T13:07:30;5.07;;;1.70;;
16662;SDS011;8445;51.270;9.434;2023-04-25T13:09:56;5.70;;;2.08;;
16662;SDS011;8445;51.270;9.434;2023-04-25T13:12:21;5.43;;;1.90;;
16662;SDS011;8445;51.270;9.434;2023-04-25T13:14:47;3.53;;;1.40;;
16662;SDS011;8445;51.270;9.434;2023-04-25T13:17:12;3.83;;;1.73;;
16662;SDS011;8445;51.270;9.434;2023-04-25T13:19:38;5.75;;;1.83;;
16662;SDS011;8445;51.270;9.434;2023-04-25T13:22:04;4.85;;;2.42;;
16662;SDS011;8445;51.270;9.434;2023-04-25T13:24:29;5.35;;;1.88;;
16662;SDS011;8445;51.270;9.434;2023-04-25T13:26:55;4.80;;;1.58;;
16662;SDS011;8445;51.270;9.434;2023-04-25T13:29:20;3.15;;;1.92;;
16662;SDS011;8445;51.270;9.434;2023-04-25T13:31:45;5.97;;;2.25;;
16662;SDS011;8445;51.270;9.434;2023-04-25T13:34:11;4.93;;;1.75;;
16662;SDS011;8445;51.270;9.434;2023-04-25T13:36:37;4.63;;;1.85;;
16662;SDS011;8445;51.270;9.434;2023-04-25T13:39:03;3.88;;;2.00;;
16662;SDS011;8445;51.270;9.434;2023-04-25T13:41:29;4.03;;;1.85;;
16662;SDS011;8445;51.270;9.434;2023-04-25T13:43:55;5.22;;;1.60;;
16662;SDS011;8445;51.270;9.434;2023-04-25T13:46:21;4.53;;;1.95;;
16662;SDS011;8445;51.270;9.434;2023-04-25T13:48:46;5.05;;;1.83;;
16662;SDS011;8445;51.270;9.434;2023-04-25T13:51:14;3.80;;;2.13;;
16662;SDS011;8445;51.270;9.434;2023-04-25T13:53:40;5.95;;;1.88;;
16662;SDS011;8445;51.270;9.434;2023-04-25T13:56:06;4.53;;;2.08;;
16662;SDS011;8445;51.270;9.434;2023-04-25T13:58:31;5.63;;;1.90;;
16662;SDS011;8445;51.270;9.434;2023-04-25T14:00:58;6.20;;;1.90;;
16662;SDS011;8445;51.270;9.434;2023-04-25T14:03:23;5.43;;;1.85;;
16662;SDS011;8445;51.270;9.434;2023-04-25T14:05:49;4.45;;;1.85;;
16662;SDS011;8445;51.270;9.434;2023-04-25T14:08:16;2.50;;;1.42;;
16662;SDS011;8445;51.270;9.434;2023-04-25T14:10:41;3.80;;;2.08;;
16662;SDS011;8445;51.270;9.434;2023-04-25T14:13:07;5.88;;;1.80;;
16662;SDS011;8445;51.270;9.434;2023-04-25T14:15:33;3.80;;;1.83;;
16662;SDS011;8445;51.270;9.434;2023-04-25T14:17:59;4.93;;;1.70;;
16662;SDS011;8445;51.270;9.434;2023-04-25T14:20:26;3.65;;;1.70;;
16662;SDS011;8445;51.270;9.434;2023-04-25T14:22:54;3.67;;;1.55;;
16662;SDS011;8445;51.270;9.434;2023-04-25T14:25:22;4.82;;;2.05;;
16662;SDS011;8445;51.270;9.434;2023-04-25T14:27:51;8.35;;;2.35;;
16662;SDS011;8445;51.270;9.434;2023-04-25T14:30:17;4.30;;;1.55;;
16662;SDS011;8445;51.270;9.434;2023-04-25T14:32:43;4.90;;;2.08;;
16662;SDS011;8445;51.270;9.434;2023-04-25T14:35:11;2.22;;;1.35;;
16662;SDS011;8445;51.270;9.434;2023-04-25T14:37:38;4.53;;;2.17;;
16662;SDS011;8445;51.270;9.434;2023-04-25T14:40:08;4.07;;;1.55;;
16662;SDS011;8445;51.270;9.434;2023-04-25T14:42:35;6.57;;;1.88;;
16662;SDS011;8445;51.270;9.434;2023-04-25T14:45:02;5.50;;;1.55;;
16662;SDS011;8445;51.270;9.434;2023-04-25T14:47:34;2.67;;;1.48;;
16662;SDS011;8445;51.270;9.434;2023-04-25T14:50:06;4.00;;;1.98;;
16662;SDS011;8445;51.270;9.434;2023-04-25T14:52:33;5.05;;;1.88;;
16662;SDS011;8445;51.270;9.434;2023-04-25T14:55:02;4.75;;;1.73;;
16662;SDS011;8445;51.270;9.434;2023-04-25T14:57:34;4.68;;;1.75;;
16662;SDS011;8445;51.270;9.434;2023-04-25T14:59:59;4.70;;;1.83;;
16662;SDS011;8445;51.270;9.434;2023-04-25T15:02:26;3.38;;;1.88;;
16662;SDS011;8445;51.270;9.434;2023-04-25T15:04:51;2.15;;;1.60;;
16662;SDS011;8445;51.270;9.434;2023-04-25T15:07:20;5.68;;;2.00;;
16662;SDS011;8445;51.270;9.434;2023-04-25T15:09:46;5.25;;;1.88;;
16662;SDS011;8445;51.270;9.434;2023-04-25T15:12:15;3.22;;;1.67;;
16662;SDS011;8445;51.270;9.434;2023-04-25T15:14:41;4.35;;;1.98;;
16662;SDS011;8445;51.270;9.434;2023-04-25T15:17:07;4.57;;;2.08;;
16662;SDS011;8445;51.270;9.434;2023-04-25T15:19:32;6.93;;;2.60;;
16662;SDS011;8445;51.270;9.434;2023-04-25T15:22:01;4.47;;;2.08;;